Watauga, Texas
Current Conditions -  °F | °C
As of 1:53 AM on Friday 28 Nov 2014 (Local Time) from KFTW Reporting Station
Clear Clear  
Wind Chill: 42°   Ceiling: Unl
Heat Index: 45°   Visibility: 10mi
Dew Point: 28°   Wind: 6mph
Humidity: 52%   Direction: 160°SSE
Pressure: 30.3"   Gusts: NA
Location:  32.8687°N, 97.2516°W
Report Text: KFTW 280753Z AUTO 16005KT 10SM CLR 07/M02 A3030 RMK AO2 SLP260 T00721022
Loading
Personal Weather Stations






























Interactive Weather Map New forecast layout! Learn more

10-Day Weather Forecast

Advertisements
Track Severe Weather on mobile